createdAt,value
2023-04-14T00:00:11.960Z,1323.00
2023-04-14T00:01:11.902Z,1314.00
2023-04-14T00:02:11.966Z,1320.00
2023-04-14T00:03:12.153Z,1314.00
2023-04-14T00:04:12.057Z,1324.00
2023-04-14T00:05:11.913Z,1309.00
2023-04-14T00:06:11.855Z,1311.00
2023-04-14T00:07:11.838Z,1309.00
2023-04-14T00:08:11.876Z,1325.00
2023-04-14T00:09:11.885Z,1321.00
2023-04-14T00:10:11.960Z,1324.00
2023-04-14T00:11:11.972Z,1319.00
2023-04-14T00:12:11.852Z,1317.00
2023-04-14T00:13:11.886Z,1337.00
2023-04-14T00:14:12.000Z,1333.00
2023-04-14T00:15:11.887Z,1334.00
2023-04-14T00:16:11.860Z,1323.00
2023-04-14T00:17:11.890Z,1327.00
2023-04-14T00:18:11.792Z,1319.00
2023-04-14T00:19:12.071Z,1319.00
2023-04-14T00:20:11.802Z,1310.00
2023-04-14T00:21:11.744Z,1311.00
2023-04-14T00:22:11.782Z,1320.00
2023-04-14T00:23:11.779Z,1335.00
2023-04-14T00:24:11.749Z,1329.00
2023-04-14T00:25:11.761Z,1300.00
2023-04-14T00:26:11.741Z,1311.00
2023-04-14T00:27:11.795Z,1310.00
2023-04-14T00:28:11.739Z,1318.00
2023-04-14T00:29:11.672Z,1316.00
2023-04-14T00:30:11.682Z,1316.00
2023-04-14T00:31:11.712Z,1311.00
2023-04-14T00:32:11.677Z,1318.00
2023-04-14T00:33:11.672Z,1329.00
2023-04-14T00:34:11.686Z,1327.00
2023-04-14T00:35:11.689Z,1320.00
2023-04-14T00:36:11.694Z,1320.00
2023-04-14T00:37:11.655Z,1317.00
2023-04-14T00:38:11.634Z,1307.00
2023-04-14T00:39:11.638Z,1305.00
2023-04-14T00:40:11.602Z,1311.00
2023-04-14T00:41:11.634Z,1292.00
2023-04-14T00:42:11.645Z,1320.00
2023-04-14T00:43:11.589Z,1302.00
2023-04-14T00:44:11.642Z,1306.00
2023-04-14T00:45:11.570Z,1311.00
2023-04-14T00:46:11.662Z,1305.00
2023-04-14T00:47:11.597Z,1306.00
2023-04-14T00:48:11.575Z,1299.00
2023-04-14T00:49:11.579Z,1306.00
2023-04-14T00:50:11.586Z,1307.00
2023-04-14T00:51:11.522Z,1299.00
2023-04-14T00:52:11.603Z,1309.00
2023-04-14T00:53:11.522Z,1311.00
2023-04-14T00:54:11.572Z,1298.00
2023-04-14T00:55:11.519Z,1290.00
2023-04-14T00:56:11.529Z,1300.00
2023-04-14T00:57:11.500Z,1296.00
2023-04-14T00:58:11.495Z,1300.00
2023-04-14T00:59:11.469Z,1288.00
2023-04-14T01:00:11.499Z,1312.00
2023-04-14T01:01:11.502Z,1292.00
2023-04-14T01:02:11.496Z,1310.00
2023-04-14T01:03:11.621Z,1291.00
2023-04-14T01:04:11.527Z,1293.00
2023-04-14T01:05:11.549Z,1279.00
2023-04-14T01:06:11.462Z,1279.00
2023-04-14T01:07:11.418Z,1275.00
2023-04-14T01:08:11.455Z,1278.00
2023-04-14T01:09:11.393Z,1288.00
2023-04-14T01:10:11.409Z,1275.00
2023-04-14T01:11:11.370Z,1280.00
2023-04-14T01:12:11.735Z,1265.00
2023-04-14T01:13:11.536Z,1289.00
2023-04-14T01:14:11.396Z,1283.00
2023-04-14T01:15:11.451Z,1274.00
2023-04-14T01:16:11.406Z,1285.00
2023-04-14T01:17:11.359Z,1280.00
2023-04-14T01:18:11.376Z,1273.00
2023-04-14T01:19:11.359Z,1262.00
2023-04-14T01:20:11.362Z,1269.00
2023-04-14T01:21:11.341Z,1286.00
2023-04-14T01:22:11.294Z,1265.00
2023-04-14T01:23:11.331Z,1278.00
2023-04-14T01:24:11.330Z,1271.00
2023-04-14T01:25:11.401Z,1270.00
2023-04-14T01:26:11.601Z,1271.00
2023-04-14T01:27:11.310Z,1277.00
2023-04-14T01:28:11.361Z,1280.00
2023-04-14T01:29:11.315Z,1282.00
2023-04-14T01:30:11.343Z,1270.00
2023-04-14T01:31:11.307Z,1266.00
2023-04-14T01:32:11.246Z,1274.00
2023-04-14T01:33:11.246Z,1291.00
2023-04-14T01:34:11.250Z,1281.00
2023-04-14T01:35:11.226Z,1285.00
2023-04-14T01:36:11.191Z,1281.00
2023-04-14T01:37:11.192Z,1282.00
2023-04-14T01:38:11.238Z,1273.00
2023-04-14T01:39:11.231Z,1263.00
2023-04-14T01:40:11.250Z,1268.00
2023-04-14T01:41:11.279Z,1268.00
2023-04-14T01:42:11.289Z,1261.00
2023-04-14T01:43:11.307Z,1263.00
2023-04-14T01:44:11.460Z,1284.00
2023-04-14T01:45:11.342Z,1285.00
2023-04-14T01:46:11.381Z,1283.00
2023-04-14T01:47:11.352Z,1266.00
2023-04-14T01:48:11.759Z,1265.00
2023-04-14T01:49:11.421Z,1259.00
2023-04-14T01:50:11.476Z,1266.00
2023-04-14T01:51:11.394Z,1266.00
2023-04-14T01:52:11.408Z,1270.00
2023-04-14T01:53:11.428Z,1262.00
2023-04-14T01:54:11.458Z,1273.00
2023-04-14T01:55:11.462Z,1267.00
2023-04-14T01:56:11.464Z,1276.00
2023-04-14T01:57:11.521Z,1266.00
2023-04-14T01:58:11.540Z,1255.00
2023-04-14T01:59:11.563Z,1275.00
2023-04-14T02:00:11.595Z,1270.00
2023-04-14T02:01:11.618Z,1268.00
2023-04-14T02:02:11.612Z,1263.00
2023-04-14T02:03:11.690Z,1276.00
2023-04-14T02:04:11.713Z,1260.00
2023-04-14T02:05:11.672Z,1260.00
2023-04-14T02:06:11.665Z,1265.00
2023-04-14T02:07:11.673Z,1258.00
2023-04-14T02:08:11.696Z,1256.00
2023-04-14T02:09:11.716Z,1258.00
2023-04-14T02:10:11.804Z,1255.00
2023-04-14T02:11:11.936Z,1254.00
2023-04-14T02:12:11.807Z,1268.00
2023-04-14T02:13:11.939Z,1260.00
2023-04-14T02:14:11.870Z,1266.00
2023-04-14T02:15:11.863Z,1266.00
2023-04-14T02:16:12.026Z,1254.00
2023-04-14T02:17:11.862Z,1241.00
2023-04-14T02:18:12.020Z,1253.00
2023-04-14T02:19:11.883Z,1252.00
2023-04-14T02:20:11.892Z,1249.00
2023-04-14T02:21:11.908Z,1250.00
2023-04-14T02:22:11.956Z,1244.00
2023-04-14T02:23:11.966Z,1246.00
2023-04-14T02:24:11.974Z,1227.00
2023-04-14T02:25:12.010Z,1258.00
2023-04-14T02:26:12.122Z,1244.00
2023-04-14T02:27:12.059Z,1243.00
2023-04-14T02:28:12.231Z,1234.00
2023-04-14T02:29:12.277Z,1241.00
2023-04-14T02:30:12.148Z,1253.00
2023-04-14T02:31:12.148Z,1242.00
2023-04-14T02:32:12.228Z,1240.00
2023-04-14T02:33:12.135Z,1251.00
2023-04-14T02:34:12.342Z,1245.00
2023-04-14T02:35:12.273Z,1244.00
2023-04-14T02:36:12.262Z,1252.00
2023-04-14T02:37:12.286Z,1266.00
2023-04-14T02:38:12.211Z,1257.00
2023-04-14T02:39:12.281Z,1248.00
2023-04-14T02:40:12.275Z,1245.00
2023-04-14T02:41:12.288Z,1246.00
2023-04-14T02:42:12.399Z,1231.00
2023-04-14T02:43:12.362Z,1232.00
2023-04-14T02:44:12.379Z,1221.00
2023-04-14T02:45:12.383Z,1244.00
2023-04-14T02:46:12.488Z,1233.00
2023-04-14T02:47:12.429Z,1241.00
2023-04-14T02:48:12.436Z,1239.00
2023-04-14T02:49:13.064Z,1232.00
2023-04-14T02:50:12.451Z,1237.00
2023-04-14T02:51:12.504Z,1235.00
2023-04-14T02:52:12.498Z,1232.00
2023-04-14T02:53:12.530Z,1223.00
2023-04-14T02:54:12.563Z,1216.00
2023-04-14T02:55:12.588Z,1233.00
2023-04-14T02:56:12.601Z,1230.00
2023-04-14T02:57:12.708Z,1237.00
2023-04-14T02:58:12.836Z,1228.00
2023-04-14T02:59:12.762Z,1236.00
2023-04-14T03:00:12.842Z,1225.00
2023-04-14T03:01:12.848Z,1232.00
2023-04-14T03:02:12.850Z,1232.00
2023-04-14T03:03:13.025Z,1226.00
2023-04-14T03:04:12.782Z,1218.00
2023-04-14T03:05:12.796Z,1215.00
2023-04-14T03:06:12.800Z,1225.00
2023-04-14T03:07:12.817Z,1239.00
2023-04-14T03:08:12.853Z,1232.00
2023-04-14T03:09:12.883Z,1244.00
2023-04-14T03:10:12.898Z,1236.00
2023-04-14T03:11:12.905Z,1237.00
2023-04-14T03:12:12.915Z,1239.00
2023-04-14T03:13:12.926Z,1227.00
2023-04-14T03:14:12.967Z,1216.00
2023-04-14T03:15:12.995Z,1227.00
2023-04-14T03:16:13.112Z,1224.00
2023-04-14T03:17:13.012Z,1230.00
2023-04-14T03:18:13.047Z,1226.00
2023-04-14T03:19:13.109Z,1229.00
2023-04-14T03:20:13.058Z,1224.00
2023-04-14T03:21:13.119Z,1223.00
2023-04-14T03:22:13.128Z,1227.00
2023-04-14T03:23:13.144Z,1228.00
2023-04-14T03:24:13.133Z,1225.00
2023-04-14T03:25:13.209Z,1231.00
2023-04-14T03:26:13.205Z,1223.00
2023-04-14T03:27:13.213Z,1223.00
2023-04-14T03:28:13.223Z,1215.00
2023-04-14T03:29:13.239Z,1198.00
2023-04-14T03:30:13.274Z,1216.00
2023-04-14T03:31:13.283Z,1220.00
2023-04-14T03:32:13.280Z,1208.00
2023-04-14T03:33:13.367Z,1208.00
2023-04-14T03:34:13.365Z,1227.00
2023-04-14T03:35:13.369Z,1221.00
2023-04-14T03:36:13.386Z,1212.00
2023-04-14T03:37:13.378Z,1221.00
2023-04-14T03:38:13.419Z,1210.00
2023-04-14T03:39:13.445Z,1225.00
2023-04-14T03:40:13.433Z,1200.00
2023-04-14T03:41:13.476Z,1206.00
2023-04-14T03:42:13.524Z,1221.00
2023-04-14T03:43:13.522Z,1194.00
2023-04-14T03:44:13.684Z,1199.00
2023-04-14T03:45:13.547Z,1198.00
2023-04-14T03:46:13.659Z,1199.00
2023-04-14T03:47:13.597Z,1203.00
2023-04-14T03:48:13.587Z,1197.00
2023-04-14T03:49:13.637Z,1207.00
2023-04-14T03:50:13.653Z,1208.00
2023-04-14T03:51:13.644Z,1215.00
2023-04-14T03:52:13.697Z,1207.00
2023-04-14T03:53:13.707Z,1214.00
2023-04-14T03:54:13.744Z,1207.00
2023-04-14T03:55:13.738Z,1197.00
2023-04-14T03:56:13.753Z,1219.00
2023-04-14T03:57:13.839Z,1198.00
2023-04-14T03:58:13.832Z,1201.00
2023-04-14T03:59:13.835Z,1212.00
2023-04-14T04:00:13.852Z,1201.00
2023-04-14T04:01:13.901Z,1203.00
2023-04-14T04:02:13.962Z,1217.00
2023-04-14T04:03:14.066Z,1208.00
2023-04-14T04:04:14.333Z,1206.00
2023-04-14T04:05:14.134Z,1171.00
2023-04-14T04:06:14.038Z,1150.00
2023-04-14T04:07:14.004Z,1104.00
2023-04-14T04:08:14.038Z,1084.00
2023-04-14T04:09:14.079Z,1067.00
2023-04-14T04:10:14.123Z,1023.00
2023-04-14T04:11:14.161Z,1001.00
2023-04-14T04:12:14.175Z,963.00
2023-04-14T04:13:14.197Z,931.00
2023-04-14T04:14:14.215Z,900.00
2023-04-14T04:15:14.260Z,871.00
2023-04-14T04:16:14.298Z,850.00
2023-04-14T04:17:14.597Z,847.00
2023-04-14T04:18:14.643Z,816.00
2023-04-14T04:19:14.413Z,797.00
2023-04-14T04:20:14.523Z,781.00
2023-04-14T04:21:14.543Z,763.00
2023-04-14T04:22:14.619Z,740.00
2023-04-14T04:23:14.588Z,703.00
2023-04-14T04:24:14.804Z,672.00
2023-04-14T04:25:14.798Z,676.00
2023-04-14T04:26:14.708Z,670.00
2023-04-14T04:27:26.614Z,668.00
2023-04-14T04:28:15.744Z,660.00
2023-04-14T04:29:14.808Z,657.00
2023-04-14T04:30:14.851Z,644.00
2023-04-14T04:31:14.760Z,648.00
2023-04-14T04:32:14.813Z,665.00
2023-04-14T04:33:14.751Z,660.00
2023-04-14T04:34:14.703Z,623.00
2023-04-14T04:35:14.708Z,640.00
2023-04-14T04:36:14.679Z,656.00
2023-04-14T04:37:14.706Z,657.00
2023-04-14T04:38:14.643Z,649.00
2023-04-14T04:39:14.684Z,661.00
2023-04-14T04:40:14.738Z,692.00
2023-04-14T04:41:14.736Z,707.00
2023-04-14T04:42:14.772Z,727.00
2023-04-14T04:43:14.833Z,742.00
2023-04-14T04:44:14.832Z,738.00
2023-04-14T04:45:14.907Z,759.00
2023-04-14T04:46:14.979Z,759.00
2023-04-14T04:47:15.015Z,763.00
2023-04-14T04:48:14.985Z,770.00
2023-04-14T04:49:15.030Z,754.00
2023-04-14T04:50:16.025Z,769.00
2023-04-14T04:51:15.130Z,793.00
2023-04-14T04:52:15.164Z,776.00
2023-04-14T04:53:15.232Z,787.00
2023-04-14T04:54:15.230Z,810.00
2023-04-14T04:55:15.324Z,797.00
2023-04-14T04:56:15.598Z,804.00
2023-04-14T04:57:15.326Z,826.00
2023-04-14T04:58:15.363Z,800.00
2023-04-14T04:59:15.393Z,828.00
2023-04-14T05:00:15.410Z,832.00
2023-04-14T05:01:15.487Z,827.00
2023-04-14T05:02:15.489Z,833.00
2023-04-14T05:03:15.511Z,841.00
2023-04-14T05:04:15.582Z,858.00
2023-04-14T05:05:15.545Z,825.00
2023-04-14T05:06:15.602Z,858.00
2023-04-14T05:07:15.641Z,849.00
2023-04-14T05:08:15.660Z,847.00
2023-04-14T05:09:15.699Z,855.00
2023-04-14T05:10:15.724Z,843.00
2023-04-14T05:11:15.817Z,868.00
2023-04-14T05:12:15.804Z,853.00
2023-04-14T05:13:15.861Z,871.00
2023-04-14T05:14:15.870Z,864.00
2023-04-14T05:15:15.936Z,863.00
2023-04-14T05:16:16.017Z,866.00
2023-04-14T05:17:16.050Z,843.00
2023-04-14T05:18:16.059Z,873.00
2023-04-14T05:19:16.058Z,865.00
2023-04-14T05:20:16.080Z,879.00
2023-04-14T05:21:16.186Z,853.00
2023-04-14T05:22:16.161Z,854.00
2023-04-14T05:23:16.181Z,864.00
2023-04-14T05:24:16.192Z,873.00
2023-04-14T05:25:16.519Z,873.00
2023-04-14T05:26:39.036Z,873.00
2023-04-14T05:27:17.373Z,874.00
2023-04-14T05:28:16.350Z,875.00
2023-04-14T05:29:16.346Z,881.00
2023-04-14T05:30:16.336Z,882.00
2023-04-14T05:31:16.579Z,903.00
2023-04-14T05:32:16.285Z,898.00
2023-04-14T05:33:16.240Z,910.00
2023-04-14T05:34:16.190Z,953.00
2023-04-14T05:35:16.232Z,955.00
2023-04-14T05:36:16.207Z,1014.00
2023-04-14T05:37:16.254Z,1069.00
2023-04-14T05:38:16.197Z,1071.00
2023-04-14T05:39:16.314Z,1090.00
2023-04-14T05:40:16.131Z,1096.00
2023-04-14T05:41:16.138Z,1116.00
2023-04-14T05:42:17.317Z,1139.00
2023-04-14T05:43:16.223Z,1152.00
2023-04-14T05:44:16.246Z,1139.00
2023-04-14T05:45:16.643Z,1134.00
2023-04-14T05:46:16.385Z,1157.00
2023-04-14T05:47:16.361Z,1165.00
2023-04-14T05:48:16.418Z,1158.00
2023-04-14T05:49:16.439Z,1162.00
2023-04-14T05:50:16.481Z,1157.00
2023-04-14T05:51:16.494Z,1154.00
2023-04-14T05:52:16.519Z,1119.00
2023-04-14T05:53:16.569Z,1115.00
2023-04-14T05:54:16.629Z,1123.00
2023-04-14T05:55:16.642Z,1114.00
2023-04-14T05:56:16.653Z,1118.00
2023-04-14T05:57:16.718Z,1104.00
2023-04-14T05:58:16.763Z,1087.00
2023-04-14T05:59:16.833Z,1084.00
2023-04-14T06:00:16.878Z,1079.00
2023-04-14T06:01:16.897Z,1080.00
2023-04-14T06:02:16.978Z,1065.00
2023-04-14T06:03:17.129Z,1058.00
2023-04-14T06:04:17.224Z,1054.00
2023-04-14T06:05:17.073Z,1051.00
2023-04-14T06:06:17.088Z,1049.00
2023-04-14T06:07:17.152Z,1028.00
2023-04-14T06:08:17.224Z,1022.00
2023-04-14T06:09:17.222Z,1025.00
2023-04-14T06:10:17.257Z,1013.00
2023-04-14T06:11:17.341Z,998.00
2023-04-14T06:12:17.381Z,996.00
2023-04-14T06:13:17.402Z,981.00
2023-04-14T06:14:17.664Z,988.00
2023-04-14T06:15:17.621Z,974.00
2023-04-14T06:16:17.544Z,973.00
2023-04-14T06:17:17.613Z,957.00
2023-04-14T06:18:17.673Z,948.00
2023-04-14T06:19:17.688Z,965.00
2023-04-14T06:20:17.739Z,936.00
2023-04-14T06:21:17.774Z,938.00
2023-04-14T06:22:17.820Z,929.00
2023-04-14T06:23:17.848Z,928.00
2023-04-14T06:24:17.887Z,924.00
2023-04-14T06:25:17.941Z,927.00
2023-04-14T06:26:18.015Z,919.00
2023-04-14T06:27:18.016Z,924.00
2023-04-14T06:28:18.027Z,908.00
2023-04-14T06:29:18.174Z,907.00
2023-04-14T06:30:18.132Z,903.00
2023-04-14T06:31:18.187Z,917.00
2023-04-14T06:32:18.340Z,905.00
2023-04-14T06:33:18.256Z,917.00
2023-04-14T06:34:18.272Z,918.00
2023-04-14T06:35:30.083Z,897.00
2023-04-14T06:36:19.301Z,897.00
2023-04-14T06:37:18.279Z,898.00
2023-04-14T06:38:18.292Z,903.00
2023-04-14T06:39:18.714Z,908.00
2023-04-14T06:40:18.668Z,910.00
2023-04-14T06:41:18.768Z,917.00
2023-04-14T06:42:18.662Z,902.00
2023-04-14T06:43:18.277Z,906.00
2023-04-14T06:44:18.238Z,921.00
2023-04-14T06:45:18.232Z,909.00
2023-04-14T06:46:18.285Z,906.00
2023-04-14T06:47:18.662Z,906.00
2023-04-14T06:48:18.215Z,904.00
2023-04-14T06:49:18.283Z,905.00
2023-04-14T06:50:18.206Z,905.00
2023-04-14T06:51:18.209Z,902.00
2023-04-14T06:52:18.805Z,915.00
2023-04-14T06:53:18.704Z,903.00
2023-04-14T06:54:18.643Z,919.00
2023-04-14T06:55:18.661Z,917.00
2023-04-14T06:56:18.666Z,911.00
2023-04-14T06:57:18.369Z,933.00
2023-04-14T06:58:18.708Z,917.00
2023-04-14T06:59:18.510Z,917.00
2023-04-14T07:00:18.482Z,921.00
2023-04-14T07:01:18.520Z,927.00
2023-04-14T07:02:18.639Z,916.00
2023-04-14T07:03:18.646Z,928.00
2023-04-14T07:04:18.639Z,930.00
2023-04-14T07:05:18.627Z,922.00
2023-04-14T07:06:18.627Z,909.00
2023-04-14T07:07:18.709Z,924.00
2023-04-14T07:08:19.147Z,928.00
2023-04-14T07:09:18.749Z,914.00
2023-04-14T07:10:18.749Z,924.00
2023-04-14T07:11:18.762Z,907.00
2023-04-14T07:12:18.825Z,938.00
2023-04-14T07:13:18.842Z,935.00
2023-04-14T07:14:18.891Z,939.00
2023-04-14T07:15:18.977Z,935.00
2023-04-14T07:16:18.969Z,924.00
2023-04-14T07:17:19.022Z,931.00
2023-04-14T07:18:18.957Z,945.00
2023-04-14T07:19:19.008Z,951.00
2023-04-14T07:20:19.017Z,953.00
2023-04-14T07:21:19.085Z,920.00
2023-04-14T07:22:19.064Z,922.00
2023-04-14T07:23:19.116Z,935.00
2023-04-14T07:24:19.103Z,919.00
2023-04-14T07:25:19.175Z,937.00
2023-04-14T07:26:19.684Z,947.00
2023-04-14T07:27:19.322Z,942.00
2023-04-14T07:28:19.288Z,937.00
2023-04-14T07:29:19.320Z,932.00
2023-04-14T07:30:19.332Z,953.00
2023-04-14T07:31:19.370Z,958.00
2023-04-14T07:32:19.427Z,1000.00
2023-04-14T07:33:19.451Z,989.00
2023-04-14T07:34:19.461Z,983.00
2023-04-14T07:35:19.434Z,995.00
2023-04-14T07:36:19.497Z,999.00
2023-04-14T07:37:19.505Z,1009.00
2023-04-14T07:38:19.512Z,1027.00
2023-04-14T07:39:22.778Z,1033.00
2023-04-14T07:40:19.468Z,1047.00
2023-04-14T07:41:19.469Z,1043.00
2023-04-14T07:42:19.487Z,1031.00
2023-04-14T07:43:19.484Z,1045.00
2023-04-14T07:44:19.507Z,1026.00
2023-04-14T07:45:19.668Z,1020.00
2023-04-14T07:46:19.486Z,1018.00
2023-04-14T07:47:19.548Z,1004.00
2023-04-14T07:48:35.197Z,1016.00
2023-04-14T07:49:19.429Z,1019.00
2023-04-14T07:50:19.907Z,1024.00
2023-04-14T07:51:19.390Z,1026.00
2023-04-14T07:52:19.366Z,1036.00
2023-04-14T07:53:19.401Z,1034.00
2023-04-14T07:54:19.426Z,1040.00
2023-04-14T07:55:19.665Z,1015.00
2023-04-14T07:56:19.400Z,1013.00
2023-04-14T07:57:19.377Z,994.00
2023-04-14T07:58:19.396Z,989.00
2023-04-14T07:59:19.407Z,968.00
2023-04-14T08:00:19.703Z,971.00
2023-04-14T08:01:19.323Z,977.00
2023-04-14T08:02:19.442Z,971.00
2023-04-14T08:03:19.425Z,973.00
2023-04-14T08:04:19.386Z,973.00
2023-04-14T08:05:19.385Z,958.00
2023-04-14T08:06:19.351Z,960.00
2023-04-14T08:07:19.302Z,957.00
2023-04-14T08:08:19.318Z,956.00
2023-04-14T08:09:19.295Z,974.00
2023-04-14T08:10:19.298Z,976.00
2023-04-14T08:11:19.279Z,977.00
2023-04-14T08:12:19.286Z,978.00
2023-04-14T08:13:19.304Z,981.00
2023-04-14T08:14:19.252Z,966.00
2023-04-14T08:15:19.242Z,970.00
2023-04-14T08:16:19.402Z,973.00
2023-04-14T08:17:19.208Z,974.00
2023-04-14T08:18:19.275Z,970.00
2023-04-14T08:19:19.268Z,974.00
2023-04-14T08:20:19.234Z,979.00
2023-04-14T08:21:19.335Z,984.00
2023-04-14T08:22:19.192Z,981.00
2023-04-14T08:23:19.184Z,976.00
2023-04-14T08:24:19.715Z,985.00
2023-04-14T08:25:19.731Z,973.00
2023-04-14T08:26:19.210Z,980.00
2023-04-14T08:27:19.221Z,967.00
2023-04-14T08:28:19.167Z,963.00
2023-04-14T08:29:19.249Z,979.00
2023-04-14T08:30:19.169Z,979.00
2023-04-14T08:31:19.216Z,980.00
2023-04-14T08:32:19.195Z,995.00
2023-04-14T08:33:19.288Z,978.00
2023-04-14T08:34:21.795Z,1007.00
2023-04-14T08:35:37.018Z,988.00
2023-04-14T08:36:20.109Z,983.00
2023-04-14T08:37:19.146Z,960.00
2023-04-14T08:38:19.067Z,980.00
2023-04-14T08:39:19.101Z,979.00
2023-04-14T08:40:19.058Z,941.00
2023-04-14T08:41:19.179Z,907.00
2023-04-14T08:42:19.068Z,865.00
2023-04-14T08:43:19.231Z,816.00
2023-04-14T08:44:19.028Z,791.00
2023-04-14T08:45:19.055Z,819.00
2023-04-14T08:46:19.116Z,774.00
2023-04-14T08:47:19.008Z,773.00
2023-04-14T08:48:19.069Z,761.00
2023-04-14T08:49:18.959Z,754.00
2023-04-14T08:50:19.017Z,793.00
2023-04-14T08:51:18.992Z,738.00
2023-04-14T08:52:18.981Z,775.00
2023-04-14T08:53:19.254Z,839.00
2023-04-14T08:54:18.940Z,818.00
2023-04-14T08:55:18.945Z,832.00
2023-04-14T08:56:18.958Z,825.00
2023-04-14T08:57:18.970Z,865.00
2023-04-14T08:58:18.914Z,853.00
2023-04-14T08:59:18.942Z,853.00
2023-04-14T09:00:18.935Z,866.00
2023-04-14T09:01:18.912Z,887.00
2023-04-14T09:02:18.965Z,886.00
2023-04-14T09:03:19.014Z,883.00
2023-04-14T09:04:18.993Z,909.00
2023-04-14T09:05:18.899Z,962.00
2023-04-14T09:06:18.873Z,956.00
2023-04-14T09:07:18.883Z,1004.00
2023-04-14T09:08:18.914Z,1073.00
2023-04-14T09:09:18.843Z,1106.00
2023-04-14T09:10:18.853Z,1103.00
2023-04-14T09:11:18.867Z,1137.00
2023-04-14T09:12:18.905Z,1131.00
2023-04-14T09:13:18.823Z,1172.00
2023-04-14T09:14:19.237Z,1219.00
2023-04-14T09:15:18.838Z,1242.00
2023-04-14T09:16:18.888Z,1217.00
2023-04-14T09:17:18.906Z,1285.00
2023-04-14T09:18:18.846Z,1295.00
2023-04-14T09:19:18.925Z,1305.00
2023-04-14T09:20:35.717Z,1308.00
2023-04-14T09:21:50.968Z,1309.00
2023-04-14T09:22:19.854Z,1310.00
2023-04-14T09:23:18.834Z,1317.00
2023-04-14T09:24:18.838Z,1320.00
2023-04-14T09:25:18.856Z,1352.00
2023-04-14T09:26:18.811Z,1363.00
2023-04-14T09:27:18.810Z,1361.00
2023-04-14T09:28:18.812Z,1341.00
2023-04-14T09:29:19.230Z,1363.00
2023-04-14T09:30:18.778Z,1364.00
2023-04-14T09:31:18.785Z,1371.00
2023-04-14T09:32:18.805Z,1385.00
2023-04-14T09:33:18.825Z,1596.00
2023-04-14T09:34:18.854Z,1770.00
2023-04-14T09:35:18.783Z,1808.00
2023-04-14T09:36:18.787Z,1806.00
2023-04-14T09:37:18.728Z,1763.00
2023-04-14T09:38:18.752Z,1738.00
2023-04-14T09:39:18.748Z,1724.00
2023-04-14T09:40:18.713Z,1715.00
2023-04-14T09:41:18.708Z,1693.00
2023-04-14T09:42:18.707Z,1707.00
2023-04-14T09:43:18.671Z,1688.00
2023-04-14T09:44:18.667Z,1690.00
2023-04-14T09:45:18.727Z,1679.00
2023-04-14T09:46:18.708Z,1659.00
2023-04-14T09:47:18.661Z,1649.00
2023-04-14T09:48:18.671Z,1645.00
2023-04-14T09:49:18.676Z,1625.00
2023-04-14T09:50:18.657Z,1614.00
2023-04-14T09:51:18.618Z,1612.00
2023-04-14T09:52:18.624Z,1617.00
2023-04-14T09:53:18.665Z,1604.00
2023-04-14T09:54:18.713Z,1586.00
2023-04-14T09:55:18.788Z,1562.00
2023-04-14T09:56:18.854Z,1545.00
2023-04-14T09:57:18.905Z,1562.00
2023-04-14T09:58:19.034Z,1584.00
2023-04-14T09:59:19.015Z,1606.00
2023-04-14T10:00:19.153Z,1656.00
2023-04-14T10:01:19.209Z,1617.00
2023-04-14T10:02:19.273Z,1585.00
2023-04-14T10:03:19.328Z,1556.00
2023-04-14T10:04:19.937Z,1527.00
2023-04-14T10:05:19.737Z,1518.00
2023-04-14T10:06:19.444Z,1486.00
2023-04-14T10:07:19.641Z,1473.00
2023-04-14T10:08:19.510Z,1445.00
2023-04-14T10:09:19.565Z,1401.00
2023-04-14T10:10:19.775Z,1413.00
2023-04-14T10:11:19.723Z,1413.00
2023-04-14T10:12:19.718Z,1401.00
2023-04-14T10:13:19.805Z,1380.00
2023-04-14T10:14:19.832Z,1387.00
2023-04-14T10:15:19.907Z,1386.00
2023-04-14T10:16:20.007Z,1345.00
2023-04-14T10:17:20.033Z,1340.00
2023-04-14T10:18:20.067Z,1344.00
2023-04-14T10:19:20.135Z,1324.00
2023-04-14T10:20:20.138Z,1336.00
2023-04-14T10:21:20.233Z,1325.00
2023-04-14T10:22:20.259Z,1308.00
2023-04-14T10:23:20.316Z,1300.00
2023-04-14T10:24:20.316Z,1307.00
2023-04-14T10:25:20.346Z,1300.00
2023-04-14T10:26:20.420Z,1293.00
2023-04-14T10:27:20.444Z,1289.00
2023-04-14T10:28:20.758Z,1281.00
2023-04-14T10:29:20.519Z,1286.00
2023-04-14T10:30:20.559Z,1266.00
2023-04-14T10:31:20.673Z,1278.00
2023-04-14T10:32:20.715Z,1270.00
2023-04-14T10:33:20.705Z,1276.00
2023-04-14T10:34:20.689Z,1265.00
2023-04-14T10:35:20.767Z,1258.00
2023-04-14T10:36:21.276Z,1243.00
2023-04-14T10:37:20.787Z,1244.00
2023-04-14T10:38:20.766Z,1242.00
2023-04-14T10:39:20.828Z,1242.00
2023-04-14T10:40:22.779Z,1226.00
2023-04-14T10:41:20.903Z,1225.00
2023-04-14T10:42:20.909Z,1245.00
2023-04-14T10:43:20.910Z,1260.00
2023-04-14T10:44:20.961Z,1249.00
2023-04-14T10:45:20.972Z,1232.00
2023-04-14T10:46:20.994Z,1225.00
2023-04-14T10:47:21.002Z,1218.00
2023-04-14T10:48:21.022Z,1204.00
2023-04-14T10:49:21.052Z,1212.00
2023-04-14T10:50:21.067Z,1202.00
2023-04-14T10:51:21.298Z,1187.00
2023-04-14T10:52:21.087Z,1190.00
2023-04-14T10:53:21.133Z,1184.00
2023-04-14T10:54:21.153Z,1185.00
2023-04-14T10:55:21.168Z,1173.00
2023-04-14T10:56:21.174Z,1187.00
2023-04-14T10:57:21.186Z,1181.00
2023-04-14T10:58:21.207Z,1177.00
2023-04-14T10:59:21.235Z,1152.00
2023-04-14T11:00:21.251Z,1145.00
2023-04-14T11:01:21.230Z,1137.00
2023-04-14T11:02:21.330Z,1134.00
2023-04-14T11:03:21.344Z,1141.00
2023-04-14T11:04:21.356Z,1123.00
2023-04-14T11:05:21.274Z,1144.00
2023-04-14T11:06:21.320Z,1125.00
2023-04-14T11:07:21.336Z,1114.00
2023-04-14T11:08:21.388Z,1117.00
2023-04-14T11:09:21.336Z,1111.00
2023-04-14T11:10:21.434Z,1098.00
2023-04-14T11:11:21.356Z,1102.00
2023-04-14T11:12:21.366Z,1099.00
2023-04-14T11:13:21.831Z,1106.00
2023-04-14T11:14:21.366Z,1100.00
2023-04-14T11:15:21.438Z,1076.00
2023-04-14T11:16:21.437Z,1136.00
2023-04-14T11:17:21.533Z,1262.00
2023-04-14T11:18:21.917Z,1253.00
2023-04-14T11:19:21.768Z,1216.00
2023-04-14T11:20:21.502Z,1215.00
2023-04-14T11:21:21.788Z,1218.00
2023-04-14T11:22:21.492Z,1206.00
2023-04-14T11:23:21.509Z,1210.00
2023-04-14T11:24:21.538Z,1220.00
2023-04-14T11:25:23.995Z,1214.00
2023-04-14T11:26:21.572Z,1188.00
2023-04-14T11:27:21.525Z,1181.00
2023-04-14T11:28:21.513Z,1163.00
2023-04-14T11:29:21.496Z,1126.00
2023-04-14T11:30:21.501Z,1087.00
2023-04-14T11:31:23.316Z,1097.00
2023-04-14T11:32:21.491Z,1097.00
2023-04-14T11:33:21.461Z,1082.00
2023-04-14T11:34:21.426Z,1079.00
2023-04-14T11:35:21.446Z,1036.00
2023-04-14T11:36:21.479Z,1021.00
2023-04-14T11:37:22.667Z,1004.00
2023-04-14T11:38:21.429Z,981.00
2023-04-14T11:39:21.404Z,948.00
2023-04-14T11:40:21.403Z,955.00
2023-04-14T11:41:21.375Z,945.00
2023-04-14T11:42:21.419Z,939.00
2023-04-14T11:43:22.836Z,941.00
2023-04-14T11:44:21.459Z,914.00
2023-04-14T11:45:21.372Z,905.00
2023-04-14T11:46:21.434Z,861.00
2023-04-14T11:47:21.508Z,876.00
2023-04-14T11:48:21.435Z,841.00
2023-04-14T11:49:22.286Z,841.00
2023-04-14T11:50:21.524Z,810.00
2023-04-14T11:51:21.552Z,789.00
2023-04-14T11:52:21.556Z,787.00
2023-04-14T11:53:21.590Z,766.00
2023-04-14T11:54:21.703Z,775.00
2023-04-14T11:55:21.674Z,772.00
2023-04-14T11:56:21.711Z,791.00
2023-04-14T11:57:21.732Z,790.00
2023-04-14T11:58:21.739Z,804.00
2023-04-14T11:59:21.772Z,799.00
2023-04-14T12:00:21.829Z,822.00
2023-04-14T12:01:21.826Z,811.00
2023-04-14T12:02:22.023Z,825.00
2023-04-14T12:03:22.103Z,821.00
2023-04-14T12:04:22.046Z,807.00
2023-04-14T12:05:22.014Z,795.00
2023-04-14T12:06:21.995Z,809.00
2023-04-14T12:07:22.056Z,817.00
2023-04-14T12:08:22.046Z,810.00
2023-04-14T12:09:22.066Z,701.00
2023-04-14T12:10:22.118Z,640.00
2023-04-14T12:11:22.795Z,614.00
2023-04-14T12:12:22.239Z,574.00
2023-04-14T12:13:22.300Z,548.00
2023-04-14T12:14:22.376Z,516.00